Time;durP1;ratioP1;P1;durP2;ratioP2;P2;SDS_P1;SDS_P2;PMS_P1;PMS_P2;Temp;Humidity;BMP_temperature;BMP_pressure;BME280_temperature;BME280_humidity;BME280_pressure;Samples;Min_cycle;Max_cycle;Signal;HPM_P1;HPM_P2
2022/11/09 00:04:45;;;;;;;1.02;0.68;;;;;;;;;;10460750;28;20037;-81
2022/11/09 00:09:48;;;;;;;0.95;0.68;;;;;;;;;;10444539;28;20114;-82
2022/11/09 00:14:53;;;;;;;0.68;0.60;;;;;;;;;;10434221;28;20111;-81
2022/11/09 00:19:57;;;;;;;0.65;0.57;;;;;;;;;;10459868;28;20041;-82
2022/11/09 00:25:00;;;;;;;2.63;1.00;;;;;;;;;;10460594;28;20537;-81
2022/11/09 00:30:06;;;;;;;0.50;0.40;;;;;;;;;;10459906;28;20056;-81
2022/11/09 00:35:10;;;;;;;1.40;0.50;;;;;;;;;;10460733;28;20124;-80
2022/11/09 00:40:14;;;;;;;0.60;0.40;;;;;;;;;;10438120;28;20072;-82
2022/11/09 00:45:19;;;;;;;0.95;0.60;;;;;;;;;;10442636;28;20479;-81
2022/11/09 00:50:22;;;;;;;0.50;0.47;;;;;;;;;;10455842;28;20056;-82
2022/11/09 00:55:26;;;;;;;1.17;0.68;;;;;;;;;;10446180;28;20103;-82
2022/11/09 01:00:31;;;;;;;1.55;0.88;;;;;;;;;;10439459;28;20041;-82
2022/11/09 01:05:38;;;;;;;1.83;0.75;;;;;;;;;;10445420;28;20045;-82
2022/11/09 01:10:42;;;;;;;1.02;0.50;;;;;;;;;;10434693;28;20059;-82
2022/11/09 01:15:49;;;;;;;0.88;0.55;;;;;;;;;;10459225;28;20037;-83
2022/11/09 01:20:52;;;;;;;0.57;0.40;;;;;;;;;;10441773;28;20041;-83
2022/11/09 01:25:59;;;;;;;0.57;0.43;;;;;;;;;;10450552;28;20049;-83
2022/11/09 01:31:06;;;;;;;0.40;0.35;;;;;;;;;;10443544;28;20135;-82
2022/11/09 01:36:11;;;;;;;1.02;0.40;;;;;;;;;;10447265;28;20526;-82
2022/11/09 01:41:17;;;;;;;0.45;0.40;;;;;;;;;;10449298;28;20060;-81
2022/11/09 01:46:26;;;;;;;0.28;0.28;;;;;;;;;;10472415;28;20047;-82
2022/11/09 01:51:34;;;;;;;0.90;0.60;;;;;;;;;;10450660;28;20124;-82
2022/11/09 01:56:38;;;;;;;0.30;0.30;;;;;;;;;;10434507;28;20106;-82
2022/11/09 02:01:44;;;;;;;2.05;0.82;;;;;;;;;;10448497;28;20453;-81
2022/11/09 02:06:49;;;;;;;;;;;;;;;;;;10441358;28;20040;-81
2022/11/09 02:11:54;;;;;;;0.68;0.40;;;;;;;;;;10435495;28;20369;-81
2022/11/09 02:17:01;;;;;;;0.95;0.47;;;;;;;;;;10430128;28;20325;-81
2022/11/09 02:22:06;;;;;;;;;;;;;;;;;;10438865;28;20037;-80
2022/11/09 02:27:10;;;;;;;1.50;0.40;;;;;;;;;;10436009;28;19920;-81
2022/11/09 02:32:17;;;;;;;1.60;0.70;;;;;;;;;;10408653;28;20415;-82
2022/11/09 02:37:30;;;;;;;0.60;0.32;;;;;;;;;;10421536;28;20048;-82
2022/11/09 02:42:34;;;;;;;0.40;0.30;;;;;;;;;;10431057;28;20044;-81
2022/11/09 02:47:38;;;;;;;0.50;0.30;;;;;;;;;;10429013;28;20136;-82
2022/11/09 02:52:43;;;;;;;0.20;0.20;;;;;;;;;;10429653;28;20041;-81
2022/11/09 02:57:46;;;;;;;0.38;0.38;;;;;;;;;;10429983;28;20820;-82
2022/11/09 03:02:51;;;;;;;0.57;0.20;;;;;;;;;;10428799;28;20056;-80
2022/11/09 03:08:01;;;;;;;1.17;0.38;;;;;;;;;;10429520;28;20041;-80
2022/11/09 03:13:06;;;;;;;0.40;0.28;;;;;;;;;;10429769;28;20573;-81
2022/11/09 03:18:10;;;;;;;0.30;0.30;;;;;;;;;;10430239;28;20050;-82
2022/11/09 03:23:16;;;;;;;0.63;0.30;;;;;;;;;;10429789;28;20099;-82
2022/11/09 03:28:19;;;;;;;0.77;0.30;;;;;;;;;;10428319;28;20086;-82
2022/11/09 03:33:23;;;;;;;0.90;0.50;;;;;;;;;;10429886;28;20041;-81
2022/11/09 03:38:28;;;;;;;0.60;0.22;;;;;;;;;;10428768;28;20043;-81
2022/11/09 03:43:32;;;;;;;0.28;0.20;;;;;;;;;;10428073;28;20033;-82
2022/11/09 03:48:35;;;;;;;0.82;0.30;;;;;;;;;;10428488;28;20045;-80
2022/11/09 03:53:40;;;;;;;0.38;0.30;;;;;;;;;;10436209;28;20040;-80
2022/11/09 03:58:44;;;;;;;2.55;0.45;;;;;;;;;;10436648;28;20116;-82
2022/11/09 04:03:47;;;;;;;0.20;0.20;;;;;;;;;;10428504;28;20072;-82
2022/11/09 04:08:52;;;;;;;0.73;0.13;;;;;;;;;;10446655;28;20077;-81
2022/11/09 04:13:55;;;;;;;0.20;0.20;;;;;;;;;;10415917;28;20040;-81
2022/11/09 04:18:58;;;;;;;0.50;0.20;;;;;;;;;;10424123;28;20087;-80
2022/11/09 04:24:03;;;;;;;0.30;0.25;;;;;;;;;;10424356;28;20049;-81
2022/11/09 04:29:07;;;;;;;0.17;0.15;;;;;;;;;;10424121;28;20635;-80
2022/11/09 04:34:10;;;;;;;0.20;0.20;;;;;;;;;;10443102;28;20068;-81
2022/11/09 04:39:15;;;;;;;0.20;0.20;;;;;;;;;;10445068;28;20060;-82
2022/11/09 04:44:18;;;;;;;0.40;0.30;;;;;;;;;;10434358;28;20106;-81
2022/11/09 04:49:22;;;;;;;0.30;0.30;;;;;;;;;;10445902;28;20124;-82
2022/11/09 04:54:26;;;;;;;0.20;0.20;;;;;;;;;;10459101;28;20045;-81
2022/11/09 04:59:30;;;;;;;0.30;0.20;;;;;;;;;;10461476;28;20051;-82
2022/11/09 05:04:33;;;;;;;0.65;0.30;;;;;;;;;;10440666;28;20072;-81
2022/11/09 05:09:38;;;;;;;0.82;0.40;;;;;;;;;;10449446;28;20071;-81
2022/11/09 05:14:41;;;;;;;0.20;0.20;;;;;;;;;;10461838;28;20041;-81
2022/11/09 05:19:45;;;;;;;0.20;0.20;;;;;;;;;;10458831;28;20091;-81
2022/11/09 05:24:50;;;;;;;0.20;0.20;;;;;;;;;;10449226;28;20449;-81
2022/11/09 05:29:54;;;;;;;0.35;0.20;;;;;;;;;;10440844;28;20036;-81
2022/11/09 05:34:57;;;;;;;1.88;0.30;;;;;;;;;;10426603;28;20124;-80
2022/11/09 05:40:02;;;;;;;0.28;0.28;;;;;;;;;;10474616;28;20076;-82
2022/11/09 05:45:06;;;;;;;0.20;0.20;;;;;;;;;;10458642;28;20055;-81
2022/11/09 05:50:30;;;;;;;0.30;0.30;;;;;;;;;;10409837;28;20048;-81
2022/11/09 05:55:48;;;;;;;0.20;0.20;;;;;;;;;;10449165;28;20509;-81
2022/11/09 06:00:51;;;;;;;0.30;0.30;;;;;;;;;;10457954;28;20040;-82
2022/11/09 06:05:54;;;;;;;0.40;0.20;;;;;;;;;;10442077;28;20072;-82
2022/11/09 06:11:01;;;;;;;0.20;0.20;;;;;;;;;;10446531;28;20099;-81
2022/11/09 06:16:07;;;;;;;0.30;0.20;;;;;;;;;;10473857;28;20055;-82
2022/11/09 06:21:10;;;;;;;0.60;0.30;;;;;;;;;;10450650;28;20040;-82
2022/11/09 06:26:15;;;;;;;0.20;0.10;;;;;;;;;;10442576;28;20051;-82
2022/11/09 06:31:19;;;;;;;0.30;0.30;;;;;;;;;;10455259;28;20112;-83
2022/11/09 06:36:23;;;;;;;0.30;0.20;;;;;;;;;;10457791;28;20036;-82
2022/11/09 06:41:28;;;;;;;0.20;0.20;;;;;;;;;;10460707;28;20471;-81
2022/11/09 06:46:31;;;;;;;0.20;0.20;;;;;;;;;;10431177;28;20068;-81
2022/11/09 06:51:35;;;;;;;1.27;0.30;;;;;;;;;;10428944;28;20127;-80
2022/11/09 06:56:40;;;;;;;0.43;0.30;;;;;;;;;;10458838;28;20676;-82
2022/11/09 07:01:43;;;;;;;0.40;0.20;;;;;;;;;;10450024;28;20438;-80
2022/11/09 07:06:47;;;;;;;0.20;0.20;;;;;;;;;;10464838;28;20049;-80
2022/11/09 07:11:52;;;;;;;0.30;0.30;;;;;;;;;;10439249;28;20043;-81
2022/11/09 07:16:55;;;;;;;0.25;0.20;;;;;;;;;;10425279;28;20136;-82
2022/11/09 07:21:59;;;;;;;0.10;0.10;;;;;;;;;;10442720;28;20065;-82
2022/11/09 07:27:03;;;;;;;0.52;0.22;;;;;;;;;;10475602;28;20131;-82
2022/11/09 07:32:07;;;;;;;0.82;0.10;;;;;;;;;;10460641;28;20040;-82
2022/11/09 07:37:10;;;;;;;0.10;0.10;;;;;;;;;;10448806;28;21259;-81
2022/11/09 07:42:15;;;;;;;0.22;0.20;;;;;;;;;;10439747;28;20040;-82
2022/11/09 07:47:19;;;;;;;0.38;0.38;;;;;;;;;;10463001;28;20139;-82
2022/11/09 07:52:23;;;;;;;0.85;0.32;;;;;;;;;;10436673;28;20090;-80
2022/11/09 07:57:28;;;;;;;0.70;0.30;;;;;;;;;;10475987;28;20125;-81
2022/11/09 08:02:31;;;;;;;0.30;0.30;;;;;;;;;;10457598;28;20474;-81
2022/11/09 08:07:36;;;;;;;0.30;0.25;;;;;;;;;;10455176;28;20041;-82
2022/11/09 08:12:41;;;;;;;0.60;0.40;;;;;;;;;;10464886;28;20043;-81
2022/11/09 08:17:44;;;;;;;0.28;0.20;;;;;;;;;;10439772;28;20045;-82
2022/11/09 08:22:48;;;;;;;0.43;0.30;;;;;;;;;;10447506;28;20443;-81
2022/11/09 08:27:53;;;;;;;0.82;0.60;;;;;;;;;;10465603;28;20472;-82
2022/11/09 08:32:57;;;;;;;0.57;0.43;;;;;;;;;;10480834;28;20044;-81
2022/11/09 08:38:02;;;;;;;0.90;0.55;;;;;;;;;;10445055;28;20453;-82
2022/11/09 08:43:08;;;;;;;0.60;0.30;;;;;;;;;;10473850;28;20047;-80
2022/11/09 08:48:12;;;;;;;0.60;0.35;;;;;;;;;;10455472;28;20036;-82
2022/11/09 08:53:16;;;;;;;0.30;0.20;;;;;;;;;;10464051;28;20143;-81
2022/11/09 08:58:21;;;;;;;0.50;0.30;;;;;;;;;;10454674;28;20495;-81
2022/11/09 09:03:25;;;;;;;0.30;0.30;;;;;;;;;;10448907;28;20106;-80
2022/11/09 09:08:28;;;;;;;0.50;0.30;;;;;;;;;;10442651;28;20120;-81
2022/11/09 09:13:33;;;;;;;0.60;0.25;;;;;;;;;;10433979;28;20037;-82
2022/11/09 09:18:38;;;;;;;1.00;0.40;;;;;;;;;;10434420;28;20079;-80
2022/11/09 09:23:42;;;;;;;0.30;0.15;;;;;;;;;;10442961;28;20501;-81
2022/11/09 09:28:47;;;;;;;2.30;0.50;;;;;;;;;;10461617;28;20036;-81
2022/11/09 09:33:51;;;;;;;0.88;0.38;;;;;;;;;;10471075;28;20186;-82
2022/11/09 09:38:54;;;;;;;0.43;0.38;;;;;;;;;;10453409;28;20056;-82
2022/11/09 09:44:06;;;;;;;0.88;0.50;;;;;;;;;;10471704;28;20047;-82
2022/11/09 09:49:15;;;;;;;2.13;0.40;;;;;;;;;;10441060;28;20085;-81
2022/11/09 09:54:21;;;;;;;0.60;0.20;;;;;;;;;;10447572;28;20123;-82
2022/11/09 09:59:31;;;;;;;;;;;;;;;;;;10471907;28;20135;-82
2022/11/09 10:04:37;;;;;;;0.43;0.20;;;;;;;;;;10453948;28;19930;-80
2022/11/09 10:09:53;;;;;;;0.90;0.30;;;;;;;;;;10464372;28;20742;-82
2022/11/09 10:15:10;;;;;;;0.63;0.30;;;;;;;;;;10439735;28;20064;-82
2022/11/09 10:20:26;;;;;;;0.90;0.22;;;;;;;;;;10448202;28;20075;-81
2022/11/09 10:25:31;;;;;;;3.03;0.40;;;;;;;;;;10472593;28;20501;-82
2022/11/09 10:30:48;;;;;;;0.80;0.40;;;;;;;;;;10446358;28;20045;-82
2022/11/09 10:35:59;;;;;;;0.53;0.53;;;;;;;;;;10446487;28;20065;-82
2022/11/09 10:41:16;;;;;;;1.75;0.70;;;;;;;;;;10464420;28;20319;-81
2022/11/09 10:47:03;;;;;;;1.17;0.30;;;;;;;;;;10469970;28;20040;-82
2022/11/09 10:52:38;;;;;;;1.27;0.47;;;;;;;;;;10460260;28;20034;-81
2022/11/09 10:58:12;;;;;;;0.95;0.30;;;;;;;;;;10455872;28;20086;-83
2022/11/09 11:03:38;;;;;;;1.77;0.80;;;;;;;;;;10458918;28;20108;-82
2022/11/09 11:09:14;;;;;;;;;;;;;;;;;;10466732;28;20041;-82
2022/11/09 11:14:43;;;;;;;1.83;0.67;;;;;;;;;;10457069;28;19962;-81
2022/11/09 11:20:27;;;;;;;1.60;0.50;;;;;;;;;;10473471;28;20068;-80
2022/11/09 11:26:00;;;;;;;1.65;0.68;;;;;;;;;;10455679;28;20036;-82
2022/11/09 11:31:23;;;;;;;1.95;0.40;;;;;;;;;;10477179;28;20041;-82
2022/11/09 11:36:58;;;;;;;0.73;0.35;;;;;;;;;;10470829;28;20490;-80
2022/11/09 11:42:50;;;;;;;2.77;0.60;;;;;;;;;;10468415;28;20081;-82
2022/11/09 11:48:34;;;;;;;1.25;0.30;;;;;;;;;;10445117;28;20288;-82
2022/11/09 11:54:06;;;;;;;1.33;0.60;;;;;;;;;;10450890;28;21588;-82
2022/11/09 11:59:48;;;;;;;2.00;0.35;;;;;;;;;;10467699;28;20045;-82
2022/11/09 12:05:50;;;;;;;1.45;0.60;;;;;;;;;;10462601;28;20052;-82
2022/11/09 12:11:35;;;;;;;1.92;0.60;;;;;;;;;;10454353;28;20033;-82
2022/11/09 12:17:07;;;;;;;3.05;0.63;;;;;;;;;;10460768;28;20036;-80
2022/11/09 12:22:36;;;;;;;1.23;0.50;;;;;;;;;;10474090;28;20040;-82
2022/11/09 12:28:12;;;;;;;1.30;0.50;;;;;;;;;;10446552;28;20259;-81
2022/11/09 12:33:43;;;;;;;1.77;0.40;;;;;;;;;;10462795;28;20033;-82
2022/11/09 12:39:12;;;;;;;1.20;0.45;;;;;;;;;;10449290;28;20040;-81
2022/11/09 12:44:43;;;;;;;1.83;0.47;;;;;;;;;;10455379;28;20411;-82
2022/11/09 12:50:10;;;;;;;2.22;0.50;;;;;;;;;;10463986;28;20040;-82
2022/11/09 12:55:40;;;;;;;1.38;0.50;;;;;;;;;;10445642;28;20037;-82
2022/11/09 13:01:05;;;;;;;1.98;0.68;;;;;;;;;;10463391;28;20045;-82
2022/11/09 13:06:28;;;;;;;1.97;0.80;;;;;;;;;;10453776;28;20048;-82
2022/11/09 13:11:52;;;;;;;0.95;0.40;;;;;;;;;;10444136;28;20616;-80
2022/11/09 13:17:57;;;;;;;3.38;0.40;;;;;;;;;;10469516;28;20519;-82
2022/11/09 13:23:32;;;;;;;1.15;0.40;;;;;;;;;;10449334;28;20037;-81
2022/11/09 13:29:21;;;;;;;2.20;0.50;;;;;;;;;;10465485;28;20041;-81
2022/11/09 13:34:46;;;;;;;1.67;0.57;;;;;;;;;;10460262;28;20037;-80
2022/11/09 13:40:48;;;;;;;1.58;0.60;;;;;;;;;;10446305;28;20049;-80
2022/11/09 13:46:25;;;;;;;1.48;0.60;;;;;;;;;;10458999;28;20506;-81
2022/11/09 13:51:48;;;;;;;1.77;0.50;;;;;;;;;;10473715;28;20045;-81
2022/11/09 13:57:12;;;;;;;1.27;0.50;;;;;;;;;;10443550;28;20045;-82
2022/11/09 14:02:34;;;;;;;2.67;0.80;;;;;;;;;;10454429;28;20036;-80
2022/11/09 14:08:00;;;;;;;3.33;0.90;;;;;;;;;;10441495;28;20074;-81
2022/11/09 14:13:56;;;;;;;3.47;0.60;;;;;;;;;;10457457;28;20029;-82
2022/11/09 14:19:28;;;;;;;4.95;1.00;;;;;;;;;;10465456;28;20041;-81
2022/11/09 14:24:58;;;;;;;1.98;0.60;;;;;;;;;;10449850;28;20041;-81
2022/11/09 14:30:25;;;;;;;1.20;0.57;;;;;;;;;;10445414;28;20131;-80
2022/11/09 14:35:53;;;;;;;1.00;0.40;;;;;;;;;;10457398;28;20037;-80
2022/11/09 14:41:24;;;;;;;0.90;0.57;;;;;;;;;;10427369;28;20040;-80
2022/11/09 14:46:56;;;;;;;0.90;0.40;;;;;;;;;;10437783;28;20041;-81
2022/11/09 14:52:28;;;;;;;3.28;1.05;;;;;;;;;;10449128;28;20037;-80
2022/11/09 14:57:55;;;;;;;1.65;0.70;;;;;;;;;;10445672;28;20545;-81
2022/11/09 15:03:27;;;;;;;2.35;0.75;;;;;;;;;;10444786;28;20037;-83
2022/11/09 15:08:55;;;;;;;2.08;0.55;;;;;;;;;;10446312;28;20045;-80
2022/11/09 15:14:26;;;;;;;2.80;0.60;;;;;;;;;;10445605;28;20486;-80
2022/11/09 15:19:52;;;;;;;2.83;0.70;;;;;;;;;;10456746;28;20037;-80
2022/11/09 15:25:24;;;;;;;3.25;0.52;;;;;;;;;;10450903;28;20045;-81
2022/11/09 15:30:48;;;;;;;0.95;0.50;;;;;;;;;;10435384;28;20041;-80
2022/11/09 15:36:27;;;;;;;1.13;0.40;;;;;;;;;;10443322;28;20052;-80
2022/11/09 15:41:49;;;;;;;1.85;0.63;;;;;;;;;;10455400;28;20052;-82
2022/11/09 15:47:22;;;;;;;2.88;0.63;;;;;;;;;;10446833;28;20040;-80
2022/11/09 15:52:46;;;;;;;1.05;0.40;;;;;;;;;;10468925;28;20410;-80
2022/11/09 15:58:12;;;;;;;1.45;0.50;;;;;;;;;;10452616;28;20037;-81
2022/11/09 16:03:35;;;;;;;1.05;0.28;;;;;;;;;;10456152;28;20507;-81
2022/11/09 16:08:59;;;;;;;2.28;0.65;;;;;;;;;;10440927;28;20046;-80
2022/11/09 16:14:23;;;;;;;1.55;0.60;;;;;;;;;;10432418;28;20075;-81
2022/11/09 16:19:46;;;;;;;1.23;0.50;;;;;;;;;;10442103;28;20029;-81
2022/11/09 16:25:11;;;;;;;3.00;0.80;;;;;;;;;;10444211;28;20473;-81
2022/11/09 16:30:33;;;;;;;2.10;1.08;;;;;;;;;;10449612;28;20036;-81
2022/11/09 16:36:02;;;;;;;2.22;0.70;;;;;;;;;;10446052;28;20132;-81
2022/11/09 16:41:25;;;;;;;1.60;0.80;;;;;;;;;;10440006;28;20406;-80
2022/11/09 16:46:48;;;;;;;0.90;0.60;;;;;;;;;;10458156;28;20032;-80
2022/11/09 16:52:22;;;;;;;1.17;0.50;;;;;;;;;;10463959;28;20052;-81
2022/11/09 16:57:57;;;;;;;0.90;0.40;;;;;;;;;;10484938;28;20044;-81
2022/11/09 17:03:19;;;;;;;0.98;0.47;;;;;;;;;;10457655;28;20045;-81
2022/11/09 17:08:49;;;;;;;2.30;0.52;;;;;;;;;;10461496;28;20040;-81
2022/11/09 17:14:13;;;;;;;2.17;0.77;;;;;;;;;;10470489;28;20074;-80
2022/11/09 17:19:36;;;;;;;2.15;1.13;;;;;;;;;;10485285;28;20048;-80
2022/11/09 17:24:58;;;;;;;1.63;0.80;;;;;;;;;;10454661;28;20045;-81
2022/11/09 17:30:23;;;;;;;1.58;1.02;;;;;;;;;;10465187;28;20037;-80
2022/11/09 17:35:45;;;;;;;1.55;0.88;;;;;;;;;;10460703;28;20918;-81
2022/11/09 17:41:09;;;;;;;1.48;0.70;;;;;;;;;;10472013;28;20044;-80
2022/11/09 17:46:32;;;;;;;1.48;0.50;;;;;;;;;;10464334;28;20041;-81
2022/11/09 17:51:55;;;;;;;2.42;0.90;;;;;;;;;;10478332;28;20468;-81
2022/11/09 17:57:17;;;;;;;0.95;0.73;;;;;;;;;;10468882;28;20494;-81
2022/11/09 18:02:41;;;;;;;1.75;0.80;;;;;;;;;;10453145;28;20049;-81
2022/11/09 18:08:03;;;;;;;2.42;1.00;;;;;;;;;;10445797;28;20037;-81
2022/11/09 18:13:26;;;;;;;1.40;0.68;;;;;;;;;;10443528;28;20052;-80
2022/11/09 18:18:49;;;;;;;1.58;0.63;;;;;;;;;;10460259;28;20040;-82
2022/11/09 18:24:11;;;;;;;1.30;0.50;;;;;;;;;;10447990;28;20718;-81
2022/11/09 18:29:33;;;;;;;0.60;0.50;;;;;;;;;;10453334;28;20049;-81
2022/11/09 18:34:57;;;;;;;1.92;0.80;;;;;;;;;;10459582;28;20033;-81
2022/11/09 18:40:19;;;;;;;2.33;0.70;;;;;;;;;;10454805;28;20041;-81
2022/11/09 18:45:41;;;;;;;1.67;0.52;;;;;;;;;;10460010;28;20065;-80
2022/11/09 18:51:07;;;;;;;0.82;0.50;;;;;;;;;;10440172;28;20045;-81
2022/11/09 18:56:32;;;;;;;2.97;0.87;;;;;;;;;;10445015;28;20100;-81
2022/11/09 19:01:54;;;;;;;1.48;0.80;;;;;;;;;;10451900;28;20418;-81
2022/11/09 19:07:20;;;;;;;2.42;1.17;;;;;;;;;;10467928;28;20128;-81
2022/11/09 19:12:42;;;;;;;2.65;0.70;;;;;;;;;;10452584;28;20953;-82
2022/11/09 19:18:05;;;;;;;3.08;0.75;;;;;;;;;;10442031;28;20041;-81
2022/11/09 19:23:29;;;;;;;3.20;0.98;;;;;;;;;;10463465;28;20036;-80
2022/11/09 19:28:54;;;;;;;1.58;0.90;;;;;;;;;;10445445;28;20037;-82
2022/11/09 19:34:18;;;;;;;2.40;1.30;;;;;;;;;;10475514;28;20597;-81
2022/11/09 19:39:46;;;;;;;2.95;1.80;;;;;;;;;;10462135;28;20037;-82
2022/11/09 19:45:10;;;;;;;3.03;1.63;;;;;;;;;;10448935;28;20426;-81
2022/11/09 19:50:32;;;;;;;2.42;1.50;;;;;;;;;;10469395;28;20037;-81
2022/11/09 19:55:59;;;;;;;2.22;1.25;;;;;;;;;;10472002;28;20402;-82
2022/11/09 20:01:22;;;;;;;2.45;1.45;;;;;;;;;;10462485;28;20036;-80
2022/11/09 20:06:44;;;;;;;3.67;1.30;;;;;;;;;;10463125;28;20048;-82
2022/11/09 20:17:49;;;;;;;3.88;2.30;;;;;;;;;;10454116;28;20033;-81
2022/11/09 20:23:11;;;;;;;5.25;2.47;;;;;;;;;;10459571;28;20518;-81
2022/11/09 20:28:35;;;;;;;5.20;1.55;;;;;;;;;;10460522;28;20124;-81
2022/11/09 20:34:00;;;;;;;3.53;1.20;;;;;;;;;;10453445;28;20040;-81
2022/11/09 20:39:24;;;;;;;4.05;1.67;;;;;;;;;;10444275;28;20858;-81
2022/11/09 20:44:47;;;;;;;3.97;1.60;;;;;;;;;;10445118;28;20033;-82
2022/11/09 20:50:11;;;;;;;3.90;1.35;;;;;;;;;;10454872;28;20752;-80
2022/11/09 20:55:36;;;;;;;3.78;1.30;;;;;;;;;;10447429;28;20053;-81
2022/11/09 21:01:05;;;;;;;2.83;1.30;;;;;;;;;;10459888;28;20052;-81
2022/11/09 21:06:27;;;;;;;3.28;1.33;;;;;;;;;;10460387;28;20033;-81
2022/11/09 21:17:30;;;;;;;4.93;1.58;;;;;;;;;;10451782;28;20033;-81
2022/11/09 21:34:15;;;;;;;4.13;1.25;;;;;;;;;;10446519;28;20499;-81
2022/11/09 21:39:37;;;;;;;6.57;1.70;;;;;;;;;;10452241;28;20041;-81
2022/11/09 21:44:59;;;;;;;3.03;0.90;;;;;;;;;;10445025;28;20045;-81
2022/11/09 21:50:23;;;;;;;2.60;1.08;;;;;;;;;;10453601;28;20045;-82
2022/11/09 21:55:45;;;;;;;2.28;0.90;;;;;;;;;;10475841;28;20048;-81
2022/11/09 22:01:09;;;;;;;5.53;1.10;;;;;;;;;;10446945;28;20040;-81
2022/11/09 22:06:36;;;;;;;2.97;0.90;;;;;;;;;;10448250;28;20032;-80
2022/11/09 22:17:37;;;;;;;2.33;0.95;;;;;;;;;;10467938;28;20040;-82
2022/11/09 22:23:05;;;;;;;4.72;1.50;;;;;;;;;;10459391;28;20068;-81
2022/11/09 22:28:27;;;;;;;5.82;1.48;;;;;;;;;;10455965;28;20433;-81
2022/11/09 22:33:49;;;;;;;4.32;1.20;;;;;;;;;;10443550;28;20065;-81
2022/11/09 22:39:12;;;;;;;5.70;1.17;;;;;;;;;;10464582;28;20052;-81
2022/11/09 22:44:35;;;;;;;2.42;0.90;;;;;;;;;;10459483;28;20082;-80
2022/11/09 22:49:57;;;;;;;2.85;1.20;;;;;;;;;;10459015;28;20049;-81
2022/11/09 22:55:20;;;;;;;4.45;1.40;;;;;;;;;;10469232;28;20037;-81
2022/11/09 23:00:42;;;;;;;4.28;1.25;;;;;;;;;;10466035;28;20671;-82
2022/11/09 23:06:06;;;;;;;4.50;1.42;;;;;;;;;;10459313;28;20069;-81
2022/11/09 23:11:30;;;;;;;2.45;1.10;;;;;;;;;;10458395;28;20529;-81
2022/11/09 23:16:52;;;;;;;5.40;1.55;;;;;;;;;;10449834;28;20045;-83
2022/11/09 23:22:14;;;;;;;6.18;1.50;;;;;;;;;;10462295;28;20064;-82
2022/11/09 23:27:37;;;;;;;9.38;2.08;;;;;;;;;;10467055;28;20057;-81
2022/11/09 23:33:01;;;;;;;6.82;1.50;;;;;;;;;;10446421;28;20045;-81
2022/11/09 23:38:23;;;;;;;4.30;1.20;;;;;;;;;;10462069;28;20071;-81
2022/11/09 23:43:47;;;;;;;3.00;1.38;;;;;;;;;;10470141;28;20045;-85
2022/11/09 23:49:10;;;;;;;6.70;1.30;;;;;;;;;;10461444;28;20418;-83
2022/11/09 23:54:33;;;;;;;4.35;1.10;;;;;;;;;;10461190;28;20045;-81
2022/11/09 23:59:56;;;;;;;5.25;1.60;;;;;;;;;;10444241;28;20045;-81
